KDMA

Davis Monthan AFB Airport

Tucson, Arizona, USA
METAR KDMA 191958Z AUTO 06007KT 10SM CLR 27/12 A3002 RMK AO2 SLP133 T02740118 CHINO RWY12 $
Observed Flight Rules
Oct-19 @ 19:58 UTC (39 minutes ago) Visual Flight Rules
Wind Visibility Clouds
60° at 7 knots 10 miles
  • Clear skies
Temperatures Readings
Current 27°C / 81°F
Dewpoint 12°C / 54°F
Humidity 39%
Altimeter 30.02" Hg
Pressure 1013.3 hPa
Elevation 824
METAR KDMA 191958Z AUTO 06007KT 10SM CLR 27/12 A3002 RMK AO2 SLP133 T02740118 CHINO RWY12 $
Observed Flight Rules
Oct-19 @ 19:58 UTC
(39 minutes ago)
VFR
Wind Visibility
60° at 7 knots 10 miles
Clouds
  • Clear skies
Temperature Dewpoint
27°C / 81°F 12°C / 54°F
Humidity Altimeter Pressure
39% 30.02" Hg 1013.3 hPa